Johann Jacob — A8XD7 — position and weather

sailwx.info

Track history (hours):
 
Tides and Currents Weather Stations Pressure Air Temp Water Temp Dewpoint Dewpoint Depression Visibility Wind Speed Wind Dir Waves Ship Positions

Johann Jacob

Last reported at 2017-Oct-19 16:00 UTC. Time now 2017-Oct-19 18:41 UTC.
Position N 34°26' E 033°18'.

Length 227 m; draft 13.6 m.

Type: Tanker. MMSI: 636092124.

Date/timePositionNaut miles runAvg speedWind from/ knotsBaromVisibWave heightAir tempDewpointWater temp
2017-Oct-19 16:00N 34°26' E 033°18'0 0.5
2017-Oct-19 15:30N 34°26' E 033°18'0 0.5
2017-Oct-19 14:41N 34°26' E 033°18'0 0.4
2017-Oct-19 14:30N 34°26' E 033°18'0 0.3
2017-Oct-19 13:59N 34°26' E 033°18'0 0.3
2017-Oct-19 13:28N 34°26' E 033°17'0 0.1
2017-Oct-19 13:00N 34°26' E 033°17'0 0.1
2017-Oct-19 12:30N 34°26' E 033°17'0 0.0
2017-Oct-19 12:00N 34°26' E 033°17'3 0.2
2017-Oct-18 23:23N 34°29' E 033°19'1 0.4
2017-Oct-18 22:02N 34°29' E 033°20'0 0.4
2017-Oct-18 22:00N 34°29' E 033°20'0 0.3
2017-Oct-18 21:30N 34°29' E 033°20'0 0.3
2017-Oct-18 21:00N 34°29' E 033°20'0 0.3
2017-Oct-18 19:44N 34°29' E 033°20'0 0.3
2017-Oct-18 19:30N 34°29' E 033°20'0 0.2
2017-Oct-18 17:43N 34°29' E 033°21'0 0.2
2017-Oct-18 17:30N 34°29' E 033°21'0 0.4
2017-Oct-18 17:00N 34°29' E 033°21'1 1.0
2017-Oct-18 16:24N 34°29' E 033°21'  
2017-Oct-13 05:29N 36°12' E 014°48'4 8.8
2017-Oct-13 05:00N 36°13' E 014°43'612.2
2017-Oct-13 04:30N 36°14' E 014°35'612.4
2017-Oct-13 04:00N 36°16' E 014°28'612.4
2017-Oct-13 03:30N 36°17' E 014°20'612.1
2017-Oct-13 03:00N 36°18' E 014°13'612.3
2017-Oct-13 02:30N 36°20' E 014°05'612.5
2017-Oct-13 02:00N 36°21' E 013°58'712.3
2017-Oct-13 01:25N 36°23' E 013°49'512.1
2017-Oct-13 01:00N 36°24' E 013°43'  
2017-Oct-10 20:17N 36°44' E 000°33'412.4
2017-Oct-10 19:57N 36°44' E 000°28'  
Track history (hours):
 
Tides and Currents Weather Stations Pressure Air Temp Water Temp Dewpoint Dewpoint Depression Visibility Wind Speed Wind Dir Waves Ship Positions

Johann Jacob

Last reported at 2017-Oct-19 16:00 UTC. Time now 2017-Oct-19 18:41 UTC.
Position N 34°26' E 033°18'.

Length 227 m; draft 13.6 m.

Type: Tanker. MMSI: 636092124.

Date/timePositionNaut miles runAvg speedWind from/ knotsBaromVisibWave heightAir tempDewpointWater temp
2017-Oct-19 16:00N 34°26' E 033°18'0 0.5
2017-Oct-19 15:30N 34°26' E 033°18'0 0.5
2017-Oct-19 14:41N 34°26' E 033°18'0 0.4
2017-Oct-19 14:30N 34°26' E 033°18'0 0.3
2017-Oct-19 13:59N 34°26' E 033°18'0 0.3
2017-Oct-19 13:28N 34°26' E 033°17'0 0.1
2017-Oct-19 13:00N 34°26' E 033°17'0 0.1
2017-Oct-19 12:30N 34°26' E 033°17'0 0.0
2017-Oct-19 12:00N 34°26' E 033°17'3 0.2
2017-Oct-18 23:23N 34°29' E 033°19'1 0.4
2017-Oct-18 22:02N 34°29' E 033°20'0 0.4
2017-Oct-18 22:00N 34°29' E 033°20'0 0.3
2017-Oct-18 21:30N 34°29' E 033°20'0 0.3
2017-Oct-18 21:00N 34°29' E 033°20'0 0.3
2017-Oct-18 19:44N 34°29' E 033°20'0 0.3
2017-Oct-18 19:30N 34°29' E 033°20'0 0.2
2017-Oct-18 17:43N 34°29' E 033°21'0 0.2
2017-Oct-18 17:30N 34°29' E 033°21'0 0.4
2017-Oct-18 17:00N 34°29' E 033°21'1 1.0
2017-Oct-18 16:24N 34°29' E 033°21'  
2017-Oct-13 05:29N 36°12' E 014°48'4 8.8
2017-Oct-13 05:00N 36°13' E 014°43'612.2
2017-Oct-13 04:30N 36°14' E 014°35'612.4
2017-Oct-13 04:00N 36°16' E 014°28'612.4
2017-Oct-13 03:30N 36°17' E 014°20'612.1
2017-Oct-13 03:00N 36°18' E 014°13'612.3
2017-Oct-13 02:30N 36°20' E 014°05'612.5
2017-Oct-13 02:00N 36°21' E 013°58'712.3
2017-Oct-13 01:25N 36°23' E 013°49'512.1
2017-Oct-13 01:00N 36°24' E 013°43'  
2017-Oct-10 20:17N 36°44' E 000°33'412.4
2017-Oct-10 19:57N 36°44' E 000°28'  

Dump ship's entire track history